Main page
METAR-TAF:

METAR-TAF

Airports :

Huesca–Pirineos Airport

Huesca, Spain

latitude: 42-04-32N, longitude: 0-18-58W, elevation: 539 m

Current weather observation

The report was made 9 hours and 1 minutes ago, at 05:00 UTC
Wind 4 kt from the Southwest
Temperature 18°C
Humidity 73%
Pressure 1019 hPa
Visibility 10 km or more

METAR: LEHC 210500Z AUTO 23004KT 9999 NCD 18/13 Q1019

Time: 16:01 (14:01 UTC)

Forecast

The report was made 12 hours and 1 minutes ago, at 02:00 UTC
Forecast valid from 21 at 03 UTC to 22 at 03 UTC
Wind 4 kt from variable directions
Visibility 10 km or more
Few clouds at a height of 3000 ft
Temporary
from 21 at 12 UTC to 21 at 18 UTC
Wind 8 kt from the South
Becoming
from 21 at 17 UTC to 21 at 20 UTC
Wind 10 kt from the East

TAF: LEHC 210200Z 2103/2203 VRB04KT 9999 FEW030 TX34/2113Z TN18/2105Z TEMPO 2112/2118 19008KT BECMG 2117/2120 09010KT

Weather observations and forecasts of more than 4000 airports (METAR and TAF reports).

The available stations are represented by yellow and red dots on the map.

Hover mouse over dot to see the name of the station.

Then click to see weather observations and forecasts.

To change the map : click on the green buttons with a black cross to zoom in, on the green button with a dash to zoom out, or on the green arrows for adjacent maps.


METAR-TAF: